sensor_id;sensor_type;location;lat;lon;timestamp;temperature;humidity
2945;DHT22;1482;51.398;7.128;2022-11-03T00:00:24;11.90;1.00
2945;DHT22;1482;51.398;7.128;2022-11-03T00:02:50;11.90;1.00
2945;DHT22;1482;51.398;7.128;2022-11-03T00:05:16;11.90;1.00
2945;DHT22;1482;51.398;7.128;2022-11-03T00:08:01;11.80;1.00
2945;DHT22;1482;51.398;7.128;2022-11-03T00:10:27;11.80;1.00
2945;DHT22;1482;51.398;7.128;2022-11-03T00:12:54;11.80;1.00
2945;DHT22;1482;51.398;7.128;2022-11-03T00:15:19;11.80;1.00
2945;DHT22;1482;51.398;7.128;2022-11-03T00:17:45;11.80;1.00
2945;DHT22;1482;51.398;7.128;2022-11-03T00:20:11;11.70;1.00
2945;DHT22;1482;51.398;7.128;2022-11-03T00:22:36;11.80;1.00
2945;DHT22;1482;51.398;7.128;2022-11-03T00:25:02;11.80;1.00
2945;DHT22;1482;51.398;7.128;2022-11-03T00:27:28;11.70;1.00
2945;DHT22;1482;51.398;7.128;2022-11-03T00:29:54;11.80;1.00
2945;DHT22;1482;51.398;7.128;2022-11-03T00:32:19;11.80;1.00
2945;DHT22;1482;51.398;7.128;2022-11-03T00:34:45;11.80;1.00
2945;DHT22;1482;51.398;7.128;2022-11-03T00:37:10;11.80;1.00
2945;DHT22;1482;51.398;7.128;2022-11-03T00:39:36;11.80;1.00
2945;DHT22;1482;51.398;7.128;2022-11-03T00:42:01;11.80;1.00
2945;DHT22;1482;51.398;7.128;2022-11-03T00:44:27;11.80;1.00
2945;DHT22;1482;51.398;7.128;2022-11-03T00:46:52;11.70;1.00
2945;DHT22;1482;51.398;7.128;2022-11-03T00:49:18;11.70;1.00
2945;DHT22;1482;51.398;7.128;2022-11-03T00:51:44;11.70;1.00
2945;DHT22;1482;51.398;7.128;2022-11-03T00:54:09;11.70;1.00
2945;DHT22;1482;51.398;7.128;2022-11-03T00:56:37;11.70;1.00
2945;DHT22;1482;51.398;7.128;2022-11-03T00:59:04;11.70;1.00
2945;DHT22;1482;51.398;7.128;2022-11-03T01:01:41;11.70;1.00
2945;DHT22;1482;51.398;7.128;2022-11-03T01:04:07;11.80;1.00
2945;DHT22;1482;51.398;7.128;2022-11-03T01:06:54;11.80;1.00
2945;DHT22;1482;51.398;7.128;2022-11-03T01:12:13;11.80;1.00
2945;DHT22;1482;51.398;7.128;2022-11-03T01:14:52;11.80;1.00
2945;DHT22;1482;51.398;7.128;2022-11-03T01:17:25;11.80;1.00
2945;DHT22;1482;51.398;7.128;2022-11-03T01:19:52;11.80;1.00
2945;DHT22;1482;51.398;7.128;2022-11-03T01:22:17;11.90;1.00
2945;DHT22;1482;51.398;7.128;2022-11-03T01:24:44;11.80;1.00
2945;DHT22;1482;51.398;7.128;2022-11-03T01:27:13;11.80;1.00
2945;DHT22;1482;51.398;7.128;2022-11-03T01:29:39;11.70;1.00
2945;DHT22;1482;51.398;7.128;2022-11-03T01:32:05;11.80;1.00
2945;DHT22;1482;51.398;7.128;2022-11-03T01:34:30;11.70;1.00
2945;DHT22;1482;51.398;7.128;2022-11-03T01:36:56;11.70;1.00
2945;DHT22;1482;51.398;7.128;2022-11-03T01:39:22;11.70;1.00
2945;DHT22;1482;51.398;7.128;2022-11-03T01:41:49;11.70;1.00
2945;DHT22;1482;51.398;7.128;2022-11-03T01:46:54;11.70;1.00
2945;DHT22;1482;51.398;7.128;2022-11-03T01:49:36;11.70;1.00
2945;DHT22;1482;51.398;7.128;2022-11-03T01:52:25;11.70;1.00
2945;DHT22;1482;51.398;7.128;2022-11-03T01:55:09;11.70;1.00
2945;DHT22;1482;51.398;7.128;2022-11-03T01:57:48;11.60;1.00
2945;DHT22;1482;51.398;7.128;2022-11-03T02:00:16;11.60;1.00
2945;DHT22;1482;51.398;7.128;2022-11-03T02:02:42;11.60;1.00
2945;DHT22;1482;51.398;7.128;2022-11-03T02:05:09;11.60;1.00
2945;DHT22;1482;51.398;7.128;2022-11-03T02:07:47;11.60;1.00
2945;DHT22;1482;51.398;7.128;2022-11-03T02:10:14;11.60;1.00
2945;DHT22;1482;51.398;7.128;2022-11-03T02:12:40;11.60;1.00
2945;DHT22;1482;51.398;7.128;2022-11-03T02:15:12;11.60;1.00
2945;DHT22;1482;51.398;7.128;2022-11-03T02:17:39;11.50;1.00
2945;DHT22;1482;51.398;7.128;2022-11-03T02:20:09;11.60;1.00
2945;DHT22;1482;51.398;7.128;2022-11-03T02:22:45;11.60;1.00
2945;DHT22;1482;51.398;7.128;2022-11-03T02:27:59;11.60;1.00
2945;DHT22;1482;51.398;7.128;2022-11-03T02:30:30;11.60;1.00
2945;DHT22;1482;51.398;7.128;2022-11-03T02:35:41;11.60;1.00
2945;DHT22;1482;51.398;7.128;2022-11-03T02:38:10;11.60;1.00
2945;DHT22;1482;51.398;7.128;2022-11-03T02:40:42;11.60;1.00
2945;DHT22;1482;51.398;7.128;2022-11-03T02:43:10;11.50;1.00
2945;DHT22;1482;51.398;7.128;2022-11-03T02:45:37;11.60;1.00
2945;DHT22;1482;51.398;7.128;2022-11-03T02:48:04;11.60;1.00
2945;DHT22;1482;51.398;7.128;2022-11-03T02:50:31;11.60;1.00
2945;DHT22;1482;51.398;7.128;2022-11-03T02:52:57;11.70;1.00
2945;DHT22;1482;51.398;7.128;2022-11-03T03:03:27;11.60;1.00
2945;DHT22;1482;51.398;7.128;2022-11-03T03:05:59;11.60;1.00
2945;DHT22;1482;51.398;7.128;2022-11-03T03:08:28;11.60;1.00
2945;DHT22;1482;51.398;7.128;2022-11-03T03:10:56;11.60;1.00
2945;DHT22;1482;51.398;7.128;2022-11-03T03:13:24;11.60;1.00
2945;DHT22;1482;51.398;7.128;2022-11-03T03:18:46;11.60;1.00
2945;DHT22;1482;51.398;7.128;2022-11-03T03:21:25;11.60;1.00
2945;DHT22;1482;51.398;7.128;2022-11-03T03:24:01;11.60;1.00
2945;DHT22;1482;51.398;7.128;2022-11-03T03:26:33;11.60;1.00
2945;DHT22;1482;51.398;7.128;2022-11-03T03:29:04;11.70;1.00
2945;DHT22;1482;51.398;7.128;2022-11-03T03:31:33;11.70;1.00
2945;DHT22;1482;51.398;7.128;2022-11-03T03:34:01;11.70;1.00
2945;DHT22;1482;51.398;7.128;2022-11-03T03:36:28;11.80;1.00
2945;DHT22;1482;51.398;7.128;2022-11-03T03:38:57;11.80;1.00
2945;DHT22;1482;51.398;7.128;2022-11-03T03:41:25;11.90;1.00
2945;DHT22;1482;51.398;7.128;2022-11-03T03:43:58;11.80;1.00
2945;DHT22;1482;51.398;7.128;2022-11-03T03:46:30;11.80;1.00
2945;DHT22;1482;51.398;7.128;2022-11-03T03:48:56;11.80;1.00
2945;DHT22;1482;51.398;7.128;2022-11-03T03:51:24;11.80;1.00
2945;DHT22;1482;51.398;7.128;2022-11-03T03:53:52;11.80;1.00
2945;DHT22;1482;51.398;7.128;2022-11-03T03:56:26;11.80;1.00
2945;DHT22;1482;51.398;7.128;2022-11-03T03:58:52;11.80;1.00
2945;DHT22;1482;51.398;7.128;2022-11-03T04:01:18;11.90;1.00
2945;DHT22;1482;51.398;7.128;2022-11-03T04:03:43;11.80;1.00
2945;DHT22;1482;51.398;7.128;2022-11-03T04:06:09;11.80;1.00
2945;DHT22;1482;51.398;7.128;2022-11-03T04:08:34;11.80;1.00
2945;DHT22;1482;51.398;7.128;2022-11-03T04:11:00;11.90;1.00
2945;DHT22;1482;51.398;7.128;2022-11-03T04:13:44;11.90;1.00
2945;DHT22;1482;51.398;7.128;2022-11-03T04:16:28;11.90;1.00
2945;DHT22;1482;51.398;7.128;2022-11-03T04:19:26;11.80;1.00
2945;DHT22;1482;51.398;7.128;2022-11-03T04:22:10;11.80;1.00
2945;DHT22;1482;51.398;7.128;2022-11-03T04:24:46;11.70;1.00
2945;DHT22;1482;51.398;7.128;2022-11-03T04:32:34;11.70;1.10
2945;DHT22;1482;51.398;7.128;2022-11-03T04:35:02;11.70;2.50
2945;DHT22;1482;51.398;7.128;2022-11-03T04:37:31;11.70;3.40
2945;DHT22;1482;51.398;7.128;2022-11-03T04:40:00;11.80;1.00
2945;DHT22;1482;51.398;7.128;2022-11-03T04:42:26;11.80;1.00
2945;DHT22;1482;51.398;7.128;2022-11-03T04:44:55;11.80;1.00
2945;DHT22;1482;51.398;7.128;2022-11-03T04:47:24;11.80;1.00
2945;DHT22;1482;51.398;7.128;2022-11-03T04:49:50;11.80;1.00
2945;DHT22;1482;51.398;7.128;2022-11-03T04:52:18;11.80;1.00
2945;DHT22;1482;51.398;7.128;2022-11-03T04:54:46;11.80;1.00
2945;DHT22;1482;51.398;7.128;2022-11-03T04:57:13;11.90;1.00
2945;DHT22;1482;51.398;7.128;2022-11-03T04:59:40;11.90;1.00
2945;DHT22;1482;51.398;7.128;2022-11-03T05:02:27;11.90;1.00
2945;DHT22;1482;51.398;7.128;2022-11-03T05:04:53;11.90;1.00
2945;DHT22;1482;51.398;7.128;2022-11-03T05:09:44;11.90;1.00
2945;DHT22;1482;51.398;7.128;2022-11-03T05:12:10;11.90;1.00
2945;DHT22;1482;51.398;7.128;2022-11-03T05:14:36;11.90;1.00
2945;DHT22;1482;51.398;7.128;2022-11-03T05:17:04;11.90;1.00
2945;DHT22;1482;51.398;7.128;2022-11-03T05:19:33;12.00;1.00
2945;DHT22;1482;51.398;7.128;2022-11-03T05:22:02;12.00;1.00
2945;DHT22;1482;51.398;7.128;2022-11-03T05:24:29;12.00;1.00
2945;DHT22;1482;51.398;7.128;2022-11-03T05:26:57;12.00;1.00
2945;DHT22;1482;51.398;7.128;2022-11-03T05:31:52;12.10;1.00
2945;DHT22;1482;51.398;7.128;2022-11-03T05:34:40;12.10;1.00
2945;DHT22;1482;51.398;7.128;2022-11-03T05:42:00;12.20;1.00
2945;DHT22;1482;51.398;7.128;2022-11-03T05:44:38;12.20;1.00
2945;DHT22;1482;51.398;7.128;2022-11-03T05:47:12;12.20;1.00
2945;DHT22;1482;51.398;7.128;2022-11-03T05:49:38;12.20;1.00
2945;DHT22;1482;51.398;7.128;2022-11-03T05:52:09;12.20;1.00
2945;DHT22;1482;51.398;7.128;2022-11-03T05:54:38;12.20;1.00
2945;DHT22;1482;51.398;7.128;2022-11-03T05:57:09;12.30;1.00
2945;DHT22;1482;51.398;7.128;2022-11-03T05:59:36;12.30;1.00
2945;DHT22;1482;51.398;7.128;2022-11-03T06:02:04;12.30;1.00
2945;DHT22;1482;51.398;7.128;2022-11-03T06:04:37;12.30;1.00
2945;DHT22;1482;51.398;7.128;2022-11-03T06:07:30;12.30;1.00
2945;DHT22;1482;51.398;7.128;2022-11-03T06:09:55;12.30;1.00
2945;DHT22;1482;51.398;7.128;2022-11-03T06:12:22;12.30;1.00
2945;DHT22;1482;51.398;7.128;2022-11-03T06:14:50;12.30;1.00
2945;DHT22;1482;51.398;7.128;2022-11-03T06:17:25;12.30;1.00
2945;DHT22;1482;51.398;7.128;2022-11-03T06:19:53;12.30;1.00
2945;DHT22;1482;51.398;7.128;2022-11-03T06:22:34;12.50;1.00
2945;DHT22;1482;51.398;7.128;2022-11-03T06:25:27;12.40;1.00
2945;DHT22;1482;51.398;7.128;2022-11-03T06:27:58;12.30;1.00
2945;DHT22;1482;51.398;7.128;2022-11-03T06:30:32;12.30;1.00
2945;DHT22;1482;51.398;7.128;2022-11-03T06:33:02;12.50;1.00
2945;DHT22;1482;51.398;7.128;2022-11-03T06:35:28;12.40;1.00
2945;DHT22;1482;51.398;7.128;2022-11-03T06:37:55;12.40;1.00
2945;DHT22;1482;51.398;7.128;2022-11-03T06:42:53;12.50;1.00
2945;DHT22;1482;51.398;7.128;2022-11-03T06:45:22;12.70;1.00
2945;DHT22;1482;51.398;7.128;2022-11-03T06:47:49;12.80;1.00
2945;DHT22;1482;51.398;7.128;2022-11-03T06:50:30;13.00;1.00
2945;DHT22;1482;51.398;7.128;2022-11-03T06:52:57;13.10;1.00
2945;DHT22;1482;51.398;7.128;2022-11-03T06:55:35;13.30;1.00
2945;DHT22;1482;51.398;7.128;2022-11-03T06:58:26;13.30;1.00
2945;DHT22;1482;51.398;7.128;2022-11-03T07:00:54;13.30;1.00
2945;DHT22;1482;51.398;7.128;2022-11-03T07:03:26;13.30;1.00
2945;DHT22;1482;51.398;7.128;2022-11-03T07:05:57;13.20;1.00
2945;DHT22;1482;51.398;7.128;2022-11-03T07:08:50;13.30;1.00
2945;DHT22;1482;51.398;7.128;2022-11-03T07:11:26;13.20;1.00
2945;DHT22;1482;51.398;7.128;2022-11-03T07:13:55;13.10;1.00
2945;DHT22;1482;51.398;7.128;2022-11-03T07:16:27;13.00;1.00
2945;DHT22;1482;51.398;7.128;2022-11-03T07:18:54;12.90;1.00
2945;DHT22;1482;51.398;7.128;2022-11-03T07:21:39;12.90;1.00
2945;DHT22;1482;51.398;7.128;2022-11-03T07:27:01;12.90;1.00
2945;DHT22;1482;51.398;7.128;2022-11-03T07:29:31;12.90;1.00
2945;DHT22;1482;51.398;7.128;2022-11-03T07:31:58;12.90;1.00
2945;DHT22;1482;51.398;7.128;2022-11-03T07:34:27;13.00;1.00
2945;DHT22;1482;51.398;7.128;2022-11-03T07:36:56;13.00;1.00
2945;DHT22;1482;51.398;7.128;2022-11-03T07:39:22;13.10;1.00
2945;DHT22;1482;51.398;7.128;2022-11-03T07:41:48;13.10;1.00
2945;DHT22;1482;51.398;7.128;2022-11-03T07:44:19;13.10;1.00
2945;DHT22;1482;51.398;7.128;2022-11-03T07:46:45;13.40;1.00
2945;DHT22;1482;51.398;7.128;2022-11-03T07:49:26;13.80;1.00
2945;DHT22;1482;51.398;7.128;2022-11-03T07:51:54;14.70;1.00
2945;DHT22;1482;51.398;7.128;2022-11-03T07:54:27;15.40;1.00
2945;DHT22;1482;51.398;7.128;2022-11-03T07:59:32;15.80;1.00
2945;DHT22;1482;51.398;7.128;2022-11-03T08:01:59;16.10;1.00
2945;DHT22;1482;51.398;7.128;2022-11-03T08:04:29;17.20;1.00
2945;DHT22;1482;51.398;7.128;2022-11-03T08:06:55;18.00;1.00
2945;DHT22;1482;51.398;7.128;2022-11-03T08:09:21;18.20;1.00
2945;DHT22;1482;51.398;7.128;2022-11-03T08:11:46;17.80;1.00
2945;DHT22;1482;51.398;7.128;2022-11-03T08:14:12;17.90;1.00
2945;DHT22;1482;51.398;7.128;2022-11-03T08:16:38;18.20;1.00
2945;DHT22;1482;51.398;7.128;2022-11-03T08:19:04;18.40;1.00
2945;DHT22;1482;51.398;7.128;2022-11-03T08:21:30;18.40;1.00
2945;DHT22;1482;51.398;7.128;2022-11-03T08:23:56;18.30;1.00
2945;DHT22;1482;51.398;7.128;2022-11-03T08:26:22;18.30;1.00
2945;DHT22;1482;51.398;7.128;2022-11-03T08:28:47;18.20;1.00
2945;DHT22;1482;51.398;7.128;2022-11-03T08:31:13;17.50;1.00
2945;DHT22;1482;51.398;7.128;2022-11-03T08:33:38;17.00;1.00
2945;DHT22;1482;51.398;7.128;2022-11-03T08:36:04;16.60;1.00
2945;DHT22;1482;51.398;7.128;2022-11-03T08:38:30;16.20;1.00
2945;DHT22;1482;51.398;7.128;2022-11-03T08:40:56;16.10;1.00
2945;DHT22;1482;51.398;7.128;2022-11-03T08:43:25;15.90;1.00
2945;DHT22;1482;51.398;7.128;2022-11-03T08:45:50;15.90;1.00
2945;DHT22;1482;51.398;7.128;2022-11-03T08:48:21;15.70;1.00
2945;DHT22;1482;51.398;7.128;2022-11-03T08:50:47;15.50;1.00
2945;DHT22;1482;51.398;7.128;2022-11-03T08:53:15;15.70;1.00
2945;DHT22;1482;51.398;7.128;2022-11-03T08:55:41;15.80;1.00
2945;DHT22;1482;51.398;7.128;2022-11-03T08:58:07;16.10;1.00
2945;DHT22;1482;51.398;7.128;2022-11-03T09:00:32;16.10;1.00
2945;DHT22;1482;51.398;7.128;2022-11-03T09:02:59;16.10;1.00
2945;DHT22;1482;51.398;7.128;2022-11-03T09:05:25;16.20;1.00
2945;DHT22;1482;51.398;7.128;2022-11-03T09:07:50;16.70;1.00
2945;DHT22;1482;51.398;7.128;2022-11-03T09:10:16;16.90;1.00
2945;DHT22;1482;51.398;7.128;2022-11-03T09:12:42;17.10;1.00
2945;DHT22;1482;51.398;7.128;2022-11-03T09:15:08;17.10;1.00
2945;DHT22;1482;51.398;7.128;2022-11-03T09:17:33;17.10;1.00
2945;DHT22;1482;51.398;7.128;2022-11-03T09:19:59;17.00;1.00
2945;DHT22;1482;51.398;7.128;2022-11-03T09:22:24;16.80;1.00
2945;DHT22;1482;51.398;7.128;2022-11-03T09:24:50;16.70;1.00
2945;DHT22;1482;51.398;7.128;2022-11-03T09:27:16;16.70;1.00
2945;DHT22;1482;51.398;7.128;2022-11-03T09:29:42;16.80;1.00
2945;DHT22;1482;51.398;7.128;2022-11-03T09:32:07;16.90;1.00
2945;DHT22;1482;51.398;7.128;2022-11-03T09:34:33;17.00;1.00
2945;DHT22;1482;51.398;7.128;2022-11-03T09:36:58;17.30;1.00
2945;DHT22;1482;51.398;7.128;2022-11-03T09:39:24;17.40;1.00
2945;DHT22;1482;51.398;7.128;2022-11-03T09:41:50;17.40;1.00
2945;DHT22;1482;51.398;7.128;2022-11-03T09:44:16;17.30;1.00
2945;DHT22;1482;51.398;7.128;2022-11-03T09:46:42;17.20;1.00
2945;DHT22;1482;51.398;7.128;2022-11-03T09:49:12;17.10;1.00
2945;DHT22;1482;51.398;7.128;2022-11-03T09:51:38;17.00;1.00
2945;DHT22;1482;51.398;7.128;2022-11-03T09:54:05;17.10;1.00
2945;DHT22;1482;51.398;7.128;2022-11-03T09:56:34;17.00;1.00
2945;DHT22;1482;51.398;7.128;2022-11-03T09:59:00;17.20;1.00
2945;DHT22;1482;51.398;7.128;2022-11-03T10:01:26;17.00;1.00
2945;DHT22;1482;51.398;7.128;2022-11-03T10:03:56;17.10;1.00
2945;DHT22;1482;51.398;7.128;2022-11-03T10:06:23;17.00;1.00
2945;DHT22;1482;51.398;7.128;2022-11-03T10:08:49;17.00;1.00
2945;DHT22;1482;51.398;7.128;2022-11-03T10:11:14;16.80;1.00
2945;DHT22;1482;51.398;7.128;2022-11-03T10:13:46;16.80;1.00
2945;DHT22;1482;51.398;7.128;2022-11-03T10:16:17;16.70;1.00
2945;DHT22;1482;51.398;7.128;2022-11-03T10:18:43;16.70;1.00
2945;DHT22;1482;51.398;7.128;2022-11-03T10:21:17;16.50;1.00
2945;DHT22;1482;51.398;7.128;2022-11-03T10:23:43;16.30;1.00
2945;DHT22;1482;51.398;7.128;2022-11-03T10:26:14;16.10;1.00
2945;DHT22;1482;51.398;7.128;2022-11-03T10:29:02;16.20;1.00
2945;DHT22;1482;51.398;7.128;2022-11-03T10:31:39;16.20;1.00
2945;DHT22;1482;51.398;7.128;2022-11-03T10:34:26;16.10;1.00
2945;DHT22;1482;51.398;7.128;2022-11-03T10:37:25;16.10;1.00
2945;DHT22;1482;51.398;7.128;2022-11-03T10:39:52;16.20;1.00
2945;DHT22;1482;51.398;7.128;2022-11-03T10:42:27;16.10;1.00
2945;DHT22;1482;51.398;7.128;2022-11-03T10:45:18;16.10;1.00
2945;DHT22;1482;51.398;7.128;2022-11-03T10:48:01;16.20;1.00
2945;DHT22;1482;51.398;7.128;2022-11-03T10:50:28;16.20;1.00
2945;DHT22;1482;51.398;7.128;2022-11-03T10:52:54;16.10;1.00
2945;DHT22;1482;51.398;7.128;2022-11-03T10:55:21;16.10;1.00
2945;DHT22;1482;51.398;7.128;2022-11-03T10:57:48;16.00;1.00
2945;DHT22;1482;51.398;7.128;2022-11-03T11:00:17;16.10;1.00
2945;DHT22;1482;51.398;7.128;2022-11-03T11:02:45;16.10;1.00
2945;DHT22;1482;51.398;7.128;2022-11-03T11:05:18;16.10;1.00
2945;DHT22;1482;51.398;7.128;2022-11-03T11:07:44;16.10;1.00
2945;DHT22;1482;51.398;7.128;2022-11-03T11:10:29;16.10;1.00
2945;DHT22;1482;51.398;7.128;2022-11-03T11:13:08;16.10;1.00
2945;DHT22;1482;51.398;7.128;2022-11-03T11:28:33;16.50;1.00
2945;DHT22;1482;51.398;7.128;2022-11-03T11:30:59;16.70;1.00
2945;DHT22;1482;51.398;7.128;2022-11-03T11:33:27;16.70;1.00
2945;DHT22;1482;51.398;7.128;2022-11-03T11:41:20;17.20;1.00
2945;DHT22;1482;51.398;7.128;2022-11-03T11:43:45;17.20;1.00
2945;DHT22;1482;51.398;7.128;2022-11-03T11:46:34;17.30;1.00
2945;DHT22;1482;51.398;7.128;2022-11-03T11:51:35;16.90;1.00
2945;DHT22;1482;51.398;7.128;2022-11-03T11:54:12;16.90;1.00
2945;DHT22;1482;51.398;7.128;2022-11-03T11:56:42;17.00;1.00
2945;DHT22;1482;51.398;7.128;2022-11-03T11:59:15;17.20;1.00
2945;DHT22;1482;51.398;7.128;2022-11-03T12:01:42;17.20;1.00
2945;DHT22;1482;51.398;7.128;2022-11-03T12:06:43;17.40;1.00
2945;DHT22;1482;51.398;7.128;2022-11-03T12:11:57;17.10;1.00
2945;DHT22;1482;51.398;7.128;2022-11-03T12:14:38;17.00;1.00
2945;DHT22;1482;51.398;7.128;2022-11-03T12:19:46;16.50;1.00
2945;DHT22;1482;51.398;7.128;2022-11-03T12:22:38;16.20;1.00
2945;DHT22;1482;51.398;7.128;2022-11-03T12:25:05;16.10;1.00
2945;DHT22;1482;51.398;7.128;2022-11-03T12:30:10;16.10;1.00
2945;DHT22;1482;51.398;7.128;2022-11-03T12:32:36;16.00;1.00
2945;DHT22;1482;51.398;7.128;2022-11-03T12:35:03;16.00;1.00
2945;DHT22;1482;51.398;7.128;2022-11-03T12:37:29;16.00;1.00
2945;DHT22;1482;51.398;7.128;2022-11-03T12:39:54;16.10;1.00
2945;DHT22;1482;51.398;7.128;2022-11-03T12:42:20;16.00;1.00
2945;DHT22;1482;51.398;7.128;2022-11-03T12:44:46;16.10;1.00
2945;DHT22;1482;51.398;7.128;2022-11-03T12:47:12;16.10;1.00
2945;DHT22;1482;51.398;7.128;2022-11-03T12:49:37;16.30;1.00
2945;DHT22;1482;51.398;7.128;2022-11-03T12:52:03;16.50;1.00
2945;DHT22;1482;51.398;7.128;2022-11-03T12:54:31;16.60;1.00
2945;DHT22;1482;51.398;7.128;2022-11-03T12:56:57;16.70;1.00
2945;DHT22;1482;51.398;7.128;2022-11-03T12:59:23;16.60;1.00
2945;DHT22;1482;51.398;7.128;2022-11-03T13:01:49;16.50;1.00
2945;DHT22;1482;51.398;7.128;2022-11-03T13:04:14;16.40;1.00
2945;DHT22;1482;51.398;7.128;2022-11-03T13:06:40;16.50;1.00
2945;DHT22;1482;51.398;7.128;2022-11-03T13:09:05;16.50;1.00
2945;DHT22;1482;51.398;7.128;2022-11-03T13:11:31;16.40;1.00
2945;DHT22;1482;51.398;7.128;2022-11-03T13:14:15;16.20;1.00
2945;DHT22;1482;51.398;7.128;2022-11-03T13:16:40;16.10;1.00
2945;DHT22;1482;51.398;7.128;2022-11-03T13:19:06;16.20;1.00
2945;DHT22;1482;51.398;7.128;2022-11-03T13:21:35;16.20;1.00
2945;DHT22;1482;51.398;7.128;2022-11-03T13:24:00;16.10;1.00
2945;DHT22;1482;51.398;7.128;2022-11-03T13:26:26;16.00;1.00
2945;DHT22;1482;51.398;7.128;2022-11-03T13:28:51;15.80;1.00
2945;DHT22;1482;51.398;7.128;2022-11-03T13:31:17;15.70;1.00
2945;DHT22;1482;51.398;7.128;2022-11-03T13:33:42;15.50;1.00
2945;DHT22;1482;51.398;7.128;2022-11-03T13:36:08;15.50;1.00
2945;DHT22;1482;51.398;7.128;2022-11-03T13:38:33;15.40;1.00
2945;DHT22;1482;51.398;7.128;2022-11-03T13:40:59;15.40;1.00
2945;DHT22;1482;51.398;7.128;2022-11-03T13:43:24;15.40;1.00
2945;DHT22;1482;51.398;7.128;2022-11-03T13:45:50;15.50;1.00
2945;DHT22;1482;51.398;7.128;2022-11-03T13:48:17;15.50;1.00
2945;DHT22;1482;51.398;7.128;2022-11-03T13:50:44;15.50;1.00
2945;DHT22;1482;51.398;7.128;2022-11-03T13:53:09;15.50;1.00
2945;DHT22;1482;51.398;7.128;2022-11-03T13:55:35;15.50;1.00
2945;DHT22;1482;51.398;7.128;2022-11-03T13:58:00;15.40;1.00
2945;DHT22;1482;51.398;7.128;2022-11-03T14:00:26;15.50;1.00
2945;DHT22;1482;51.398;7.128;2022-11-03T14:02:51;15.20;1.00
2945;DHT22;1482;51.398;7.128;2022-11-03T14:05:18;15.10;1.00
2945;DHT22;1482;51.398;7.128;2022-11-03T14:07:43;15.20;1.00
2945;DHT22;1482;51.398;7.128;2022-11-03T14:10:09;15.00;1.00
2945;DHT22;1482;51.398;7.128;2022-11-03T14:12:35;15.00;1.00
2945;DHT22;1482;51.398;7.128;2022-11-03T14:15:04;15.00;1.00
2945;DHT22;1482;51.398;7.128;2022-11-03T14:17:30;14.90;1.00
2945;DHT22;1482;51.398;7.128;2022-11-03T14:19:56;14.80;1.00
2945;DHT22;1482;51.398;7.128;2022-11-03T14:22:22;14.80;1.00
2945;DHT22;1482;51.398;7.128;2022-11-03T14:24:48;14.80;1.00
2945;DHT22;1482;51.398;7.128;2022-11-03T14:27:14;14.70;1.00
2945;DHT22;1482;51.398;7.128;2022-11-03T14:29:41;14.80;1.00
2945;DHT22;1482;51.398;7.128;2022-11-03T14:32:08;14.90;1.00
2945;DHT22;1482;51.398;7.128;2022-11-03T14:34:34;14.80;1.00
2945;DHT22;1482;51.398;7.128;2022-11-03T14:37:00;14.80;1.00
2945;DHT22;1482;51.398;7.128;2022-11-03T14:39:25;14.70;1.00
2945;DHT22;1482;51.398;7.128;2022-11-03T14:41:51;14.70;1.00
2945;DHT22;1482;51.398;7.128;2022-11-03T14:44:33;14.70;1.00
2945;DHT22;1482;51.398;7.128;2022-11-03T14:47:00;14.70;1.00
2945;DHT22;1482;51.398;7.128;2022-11-03T14:49:27;14.70;1.00
2945;DHT22;1482;51.398;7.128;2022-11-03T14:51:53;14.60;1.00
2945;DHT22;1482;51.398;7.128;2022-11-03T14:54:18;14.60;1.00
2945;DHT22;1482;51.398;7.128;2022-11-03T14:56:44;14.60;1.00
2945;DHT22;1482;51.398;7.128;2022-11-03T14:59:09;14.50;1.00
2945;DHT22;1482;51.398;7.128;2022-11-03T15:01:35;14.50;1.00
2945;DHT22;1482;51.398;7.128;2022-11-03T15:04:02;14.40;1.00
2945;DHT22;1482;51.398;7.128;2022-11-03T15:06:28;14.30;1.00
2945;DHT22;1482;51.398;7.128;2022-11-03T15:08:53;14.20;1.00
2945;DHT22;1482;51.398;7.128;2022-11-03T15:11:19;14.10;1.00
2945;DHT22;1482;51.398;7.128;2022-11-03T15:13:44;14.00;1.00
2945;DHT22;1482;51.398;7.128;2022-11-03T15:16:10;14.00;1.00
2945;DHT22;1482;51.398;7.128;2022-11-03T15:18:35;13.90;1.00
2945;DHT22;1482;51.398;7.128;2022-11-03T15:21:01;13.80;1.00
2945;DHT22;1482;51.398;7.128;2022-11-03T15:23:26;13.80;1.00
2945;DHT22;1482;51.398;7.128;2022-11-03T15:25:53;13.70;1.00
2945;DHT22;1482;51.398;7.128;2022-11-03T15:28:19;13.70;1.00
2945;DHT22;1482;51.398;7.128;2022-11-03T15:30:45;13.60;1.00
2945;DHT22;1482;51.398;7.128;2022-11-03T15:33:12;13.60;1.00
2945;DHT22;1482;51.398;7.128;2022-11-03T15:35:37;13.50;1.00
2945;DHT22;1482;51.398;7.128;2022-11-03T15:38:03;13.50;1.00
2945;DHT22;1482;51.398;7.128;2022-11-03T15:40:28;13.30;1.00
2945;DHT22;1482;51.398;7.128;2022-11-03T15:42:54;13.20;1.00
2945;DHT22;1482;51.398;7.128;2022-11-03T15:45:19;13.10;1.00
2945;DHT22;1482;51.398;7.128;2022-11-03T15:47:45;12.90;1.00
2945;DHT22;1482;51.398;7.128;2022-11-03T15:50:11;12.70;8.30
2945;DHT22;1482;51.398;7.128;2022-11-03T15:52:37;12.70;39.60
2945;DHT22;1482;51.398;7.128;2022-11-03T15:55:04;12.50;39.30
2945;DHT22;1482;51.398;7.128;2022-11-03T15:57:31;12.50;42.70
2945;DHT22;1482;51.398;7.128;2022-11-03T15:59:57;12.50;52.90
2945;DHT22;1482;51.398;7.128;2022-11-03T16:02:22;12.50;65.50
2945;DHT22;1482;51.398;7.128;2022-11-03T16:04:48;12.50;59.60
2945;DHT22;1482;51.398;7.128;2022-11-03T16:07:13;12.50;89.30
2945;DHT22;1482;51.398;7.128;2022-11-03T16:09:39;12.50;99.90
2945;DHT22;1482;51.398;7.128;2022-11-03T16:12:04;12.40;99.90
2945;DHT22;1482;51.398;7.128;2022-11-03T16:14:30;12.30;99.90
2945;DHT22;1482;51.398;7.128;2022-11-03T16:16:55;12.30;99.90
2945;DHT22;1482;51.398;7.128;2022-11-03T16:19:21;12.40;99.90
2945;DHT22;1482;51.398;7.128;2022-11-03T16:21:47;12.30;99.90
2945;DHT22;1482;51.398;7.128;2022-11-03T16:24:13;12.30;99.90
2945;DHT22;1482;51.398;7.128;2022-11-03T16:26:39;12.30;99.90
2945;DHT22;1482;51.398;7.128;2022-11-03T16:29:05;12.30;99.90
2945;DHT22;1482;51.398;7.128;2022-11-03T16:31:30;12.20;99.90
2945;DHT22;1482;51.398;7.128;2022-11-03T16:33:56;12.10;99.90
2945;DHT22;1482;51.398;7.128;2022-11-03T16:36:23;12.10;99.90
2945;DHT22;1482;51.398;7.128;2022-11-03T16:38:49;12.10;99.90
2945;DHT22;1482;51.398;7.128;2022-11-03T16:41:14;12.10;99.90
2945;DHT22;1482;51.398;7.128;2022-11-03T16:43:40;12.00;99.90
2945;DHT22;1482;51.398;7.128;2022-11-03T16:46:05;11.90;99.90
2945;DHT22;1482;51.398;7.128;2022-11-03T16:48:31;11.80;1.00
2945;DHT22;1482;51.398;7.128;2022-11-03T16:50:56;11.80;1.00
2945;DHT22;1482;51.398;7.128;2022-11-03T16:53:23;11.90;1.00
2945;DHT22;1482;51.398;7.128;2022-11-03T16:55:48;11.80;1.00
2945;DHT22;1482;51.398;7.128;2022-11-03T16:58:14;11.80;1.00
2945;DHT22;1482;51.398;7.128;2022-11-03T17:00:40;11.80;1.00
2945;DHT22;1482;51.398;7.128;2022-11-03T17:03:06;11.80;1.00
2945;DHT22;1482;51.398;7.128;2022-11-03T17:05:31;11.80;1.00
2945;DHT22;1482;51.398;7.128;2022-11-03T17:07:57;11.80;99.90
2945;DHT22;1482;51.398;7.128;2022-11-03T17:10:22;11.80;38.80
2945;DHT22;1482;51.398;7.128;2022-11-03T17:12:49;11.80;15.40
2945;DHT22;1482;51.398;7.128;2022-11-03T17:15:15;11.80;1.00
2945;DHT22;1482;51.398;7.128;2022-11-03T17:17:41;11.90;1.00
2945;DHT22;1482;51.398;7.128;2022-11-03T17:20:08;11.90;1.00
2945;DHT22;1482;51.398;7.128;2022-11-03T17:22:35;11.90;1.00
2945;DHT22;1482;51.398;7.128;2022-11-03T17:25:01;11.90;1.00
2945;DHT22;1482;51.398;7.128;2022-11-03T17:27:31;11.90;1.00
2945;DHT22;1482;51.398;7.128;2022-11-03T17:30:05;11.90;1.00
2945;DHT22;1482;51.398;7.128;2022-11-03T17:32:36;12.00;1.00
2945;DHT22;1482;51.398;7.128;2022-11-03T17:35:08;11.90;1.00
2945;DHT22;1482;51.398;7.128;2022-11-03T17:37:36;11.90;1.00
2945;DHT22;1482;51.398;7.128;2022-11-03T17:40:02;11.90;1.00
2945;DHT22;1482;51.398;7.128;2022-11-03T17:42:28;11.90;1.00